Time;durP1;ratioP1;P1;durP2;ratioP2;P2;SDS_P1;SDS_P2;PMS_P1;PMS_P2;Temp;Humidity;BMP_temperature;BMP_pressure;BME280_temperature;BME280_humidity;BME280_pressure;Samples;Min_cycle;Max_cycle;Signal;HPM_P1;HPM_P2
2021/05/13 00:00:41;;;;;;;5.87;2.60;;;;;;;11.35;92.81;95826.66;4978524;28;20465;-43
2021/05/13 00:03:09;;;;;;;9.00;2.90;;;;;;;11.41;92.39;95822.78;4978026;28;20443;-34
2021/05/13 00:05:36;;;;;;;6.23;2.10;;;;;;;11.45;92.04;95830.22;4974739;28;20479;-41
2021/05/13 00:08:05;;;;;;;4.40;1.70;;;;;;;11.37;92.36;95822.19;4982496;28;20444;-35
2021/05/13 00:10:33;;;;;;;4.20;1.50;;;;;;;11.33;92.60;95822.53;4979347;28;20539;-35
2021/05/13 00:13:03;;;;;;;6.87;2.07;;;;;;;11.21;92.75;95823.47;4979576;28;20437;-34
2021/05/13 00:15:32;;;;;;;3.70;1.87;;;;;;;11.20;93.07;95820.03;4976509;28;20471;-34
2021/05/13 00:17:59;;;;;;;3.33;2.20;;;;;;;10.89;93.52;95768.66;4981168;28;21127;-41
2021/05/13 00:20:29;;;;;;;4.77;2.47;;;;;;;11.26;93.60;95818.75;4981618;28;20551;-35
2021/05/13 00:22:58;;;;;;;6.67;2.40;;;;;;;11.31;93.53;95812.22;4977219;28;20467;-35
2021/05/13 00:25:27;;;;;;;10.80;2.73;;;;;;;11.24;93.75;95803.22;4980481;28;20549;-34
2021/05/13 00:27:55;;;;;;;6.00;2.20;;;;;;;11.23;93.96;95806.78;4976903;28;20973;-34
2021/05/13 00:30:23;;;;;;;6.40;2.63;;;;;;;11.23;94.06;95800.75;4973069;28;20550;-34
2021/05/13 00:32:50;;;;;;;6.43;2.23;;;;;;;10.90;93.90;95759.06;4979576;28;20443;-41
2021/05/13 00:35:19;;;;;;;7.50;2.30;;;;;;;11.26;93.80;95798.72;4976588;28;21012;-41
2021/05/13 00:37:49;;;;;;;4.37;2.43;;;;;;;11.23;93.53;95798.97;4960093;28;20475;-41
2021/05/13 00:40:18;;;;;;;2.60;1.90;;;;;;;11.21;93.62;95795.63;4974191;28;21020;-41
2021/05/13 00:42:50;;;;;;;5.00;2.27;;;;;;;11.13;94.17;95782.38;4975799;28;21030;-34
2021/05/13 00:45:19;;;;;;;13.87;2.60;;;;;;;11.23;94.17;95783.34;4975788;28;20846;-34
2021/05/13 00:48:01;;;;;;;3.63;2.50;;;;;;;11.16;93.98;95782.16;4978833;28;20592;-41
2021/05/13 00:50:30;;;;;;;2.50;1.83;;;;;;;11.20;94.11;95788.78;4945831;28;20548;-41
2021/05/13 00:52:58;;;;;;;4.50;2.10;;;;;;;11.19;93.88;95781.91;4973933;28;20458;-41
2021/05/13 00:55:25;;;;;;;6.23;1.93;;;;;;;11.16;94.07;95784.75;4976258;28;20756;-41
2021/05/13 00:57:54;;;;;;;6.23;2.60;;;;;;;11.15;93.98;95784.88;4978555;28;20439;-35
2021/05/13 01:00:39;;;;;;;8.00;2.27;;;;;;;11.09;93.93;95783.56;4976954;28;20807;-41
2021/05/13 01:03:07;;;;;;;2.80;2.00;;;;;;;11.11;93.32;95784.28;4980019;28;20923;-41
2021/05/13 01:05:37;;;;;;;3.70;1.73;;;;;;;11.06;92.83;95781.19;4976453;28;20485;-39
2021/05/13 01:08:06;;;;;;;5.53;2.23;;;;;;;11.06;92.72;95788.19;4983816;28;21183;-33
2021/05/13 01:10:34;;;;;;;4.40;1.47;;;;;;;10.82;92.52;95762.25;4974444;28;20472;-33
2021/05/13 01:13:06;;;;;;;3.47;2.07;;;;;;;11.00;92.44;95786.91;4980435;28;20437;-33
2021/05/13 01:15:40;;;;;;;7.13;2.10;;;;;;;10.98;92.58;95788.75;4978084;28;20452;-33
2021/05/13 01:18:13;;;;;;;4.50;1.70;;;;;;;10.98;92.94;95783.56;4981390;28;20931;-39
2021/05/13 01:20:41;;;;;;;8.07;1.90;;;;;;;10.94;93.34;95787.34;4982429;28;20472;-39
2021/05/13 01:23:12;;;;;;;6.73;2.10;;;;;;;10.97;93.76;95778.47;4981978;28;20447;-40
2021/05/13 01:25:46;;;;;;;2.67;1.60;;;;;;;10.95;93.45;95783.81;4982605;28;20473;-33
2021/05/13 01:28:15;;;;;;;4.03;1.83;;;;;;;10.89;93.33;95783.44;4981072;28;20839;-39
2021/05/13 01:30:47;;;;;;;3.00;2.27;;;;;;;10.88;93.57;95779.16;4978462;28;20476;-40
2021/05/13 01:33:15;;;;;;;2.90;1.60;;;;;;;10.83;93.63;95789.94;4977042;28;20472;-33
2021/05/13 01:35:47;;;;;;;5.00;2.00;;;;;;;10.71;93.64;95770.06;4980749;28;20472;-33
2021/05/13 01:38:18;;;;;;;4.63;2.03;;;;;;;10.35;93.55;95732.94;4982179;28;21019;-40
2021/05/13 01:40:51;;;;;;;7.97;2.50;;;;;;;10.60;93.96;95783.03;4977737;28;20530;-40
2021/05/13 01:43:19;;;;;;;4.63;1.93;;;;;;;10.56;94.35;95781.63;4973045;28;20424;-33
2021/05/13 01:45:49;;;;;;;3.20;1.80;;;;;;;10.50;94.52;95781.22;4979259;28;20951;-40
2021/05/13 01:48:17;;;;;;;5.57;2.50;;;;;;;10.35;94.68;95777.16;4975190;28;20901;-33
2021/05/13 01:50:47;;;;;;;8.10;2.00;;;;;;;10.37;94.93;95789.13;4979974;28;20965;-33
2021/05/13 01:53:16;;;;;;;2.70;1.60;;;;;;;10.18;95.01;95764.59;4975681;28;20867;-33
2021/05/13 01:55:43;;;;;;;3.67;1.93;;;;;;;10.29;95.04;95788.88;4977695;28;21005;-34
2021/05/13 01:58:11;;;;;;;7.03;2.50;;;;;;;10.23;95.39;95788.50;4982064;28;20439;-34
2021/05/13 02:00:40;;;;;;;4.50;1.70;;;;;;;10.17;95.22;95792.34;4981537;28;20472;-41
2021/05/13 02:03:07;;;;;;;8.07;1.87;;;;;;;10.12;95.41;95778.88;4984313;28;20420;-33
2021/05/13 02:05:34;;;;;;;7.97;2.30;;;;;;;10.13;95.21;95779.69;4977405;28;21207;-34
2021/05/13 02:08:02;;;;;;;2.77;1.63;;;;;;;10.14;94.86;95783.94;4982020;28;20806;-37
2021/05/13 02:10:30;;;;;;;5.50;1.90;;;;;;;10.03;95.03;95782.13;4978054;28;20971;-41
2021/05/13 02:12:59;;;;;;;11.37;2.63;;;;;;;10.05;94.87;95780.28;4983076;28;20445;-42
2021/05/13 02:15:26;;;;;;;3.57;2.23;;;;;;;9.95;95.14;95779.22;4984830;28;20962;-35
2021/05/13 02:17:54;;;;;;;3.03;1.90;;;;;;;9.95;95.30;95781.81;4977915;28;20441;-42
2021/05/13 02:20:24;;;;;;;5.37;2.10;;;;;;;9.92;95.33;95779.47;4982367;28;20453;-35
2021/05/13 02:22:57;;;;;;;1.97;1.73;;;;;;;9.87;94.89;95765.16;4979795;28;20476;-35
2021/05/13 02:25:27;;;;;;;5.90;2.00;;;;;;;9.78;94.94;95766.63;4975022;28;20476;-42
2021/05/13 02:27:55;;;;;;;7.30;2.30;;;;;;;9.71;95.28;95764.56;4982539;28;21071;-35
2021/05/13 02:30:22;;;;;;;6.00;2.70;;;;;;;9.67;95.31;95769.16;4981118;28;20463;-42
2021/05/13 02:32:50;;;;;;;4.90;1.87;;;;;;;9.64;95.31;95764.19;4979401;28;20481;-42
2021/05/13 02:35:17;;;;;;;4.83;1.97;;;;;;;9.56;95.52;95744.88;4977285;28;20539;-35
2021/05/13 02:37:45;;;;;;;7.70;2.17;;;;;;;9.58;95.60;95749.03;4977031;28;20456;-35
2021/05/13 02:40:14;;;;;;;9.93;2.73;;;;;;;9.54;95.73;95751.97;4977250;28;20950;-35
2021/05/13 02:42:42;;;;;;;10.23;2.30;;;;;;;9.49;95.60;95752.28;4980638;28;20911;-33
2021/05/13 02:45:12;;;;;;;5.00;2.13;;;;;;;9.43;95.97;95750.13;4985306;28;20491;-41
2021/05/13 02:47:40;;;;;;;7.90;2.23;;;;;;;9.40;95.66;95747.75;4976412;28;20539;-40
2021/05/13 02:50:10;;;;;;;10.10;2.30;;;;;;;9.31;95.83;95755.38;4981410;28;20468;-40
2021/05/13 02:52:38;;;;;;;3.23;2.20;;;;;;;9.24;96.32;95754.97;4977983;28;20950;-40
2021/05/13 02:55:07;;;;;;;5.80;1.93;;;;;;;9.27;96.43;95756.50;4979538;28;20867;-33
2021/05/13 02:57:36;;;;;;;8.07;2.47;;;;;;;9.28;96.77;95756.41;4978031;28;20769;-40
2021/05/13 03:00:17;;;;;;;5.53;2.43;;;;;;;9.25;96.54;95755.78;4980113;28;21046;-33
2021/05/13 03:02:49;;;;;;;7.83;2.30;;;;;;;9.25;96.60;95751.44;4959584;28;20530;-33
2021/05/13 03:05:18;;;;;;;7.73;2.47;;;;;;;9.22;97.00;95751.63;4978249;28;20456;-41
2021/05/13 03:07:48;;;;;;;7.40;2.33;;;;;;;9.17;96.20;95753.75;4979010;28;20468;-41
2021/05/13 03:10:20;;;;;;;3.80;2.10;;;;;;;9.10;96.42;95747.31;4979770;28;20579;-41
2021/05/13 03:12:50;;;;;;;6.87;2.73;;;;;;;9.00;96.56;95742.88;4977783;28;20444;-38
2021/05/13 03:15:17;;;;;;;4.10;1.93;;;;;;;9.01;96.54;95742.75;4978318;28;20447;-40
2021/05/13 03:17:45;;;;;;;3.57;2.33;;;;;;;8.99;96.34;95743.81;4976630;28;20441;-40
2021/05/13 03:20:17;;;;;;;4.50;2.20;;;;;;;9.05;96.16;95748.56;4975400;28;20460;-33
2021/05/13 03:22:47;;;;;;;2.97;2.20;;;;;;;8.96;96.03;95754.41;4979912;28;20459;-34
2021/05/13 03:25:15;;;;;;;8.50;2.73;;;;;;;8.79;96.35;95741.75;4975142;28;20480;-34
2021/05/13 03:27:46;;;;;;;4.03;2.43;;;;;;;8.65;96.44;95754.84;4979452;28;20467;-41
2021/05/13 03:30:15;;;;;;;8.47;1.83;;;;;;;8.64;96.79;95748.00;4971208;28;20930;-34
2021/05/13 03:32:42;;;;;;;3.47;2.30;;;;;;;8.60;96.53;95742.19;4975398;28;20437;-41
2021/05/13 03:35:12;;;;;;;9.27;2.23;;;;;;;8.64;96.42;95754.00;4980437;28;20473;-41
2021/05/13 03:37:40;;;;;;;3.43;1.63;;;;;;;8.73;96.38;95747.38;4978169;28;20448;-34
2021/05/13 03:40:10;;;;;;;5.27;2.00;;;;;;;8.78;96.12;95742.69;4978202;28;20901;-34
2021/05/13 03:42:37;;;;;;;3.97;2.73;;;;;;;8.79;96.24;95744.34;4976654;28;20441;-42
2021/05/13 03:45:06;;;;;;;6.50;2.10;;;;;;;8.77;96.57;95744.44;4980231;28;20468;-34
2021/05/13 03:47:33;;;;;;;4.37;2.73;;;;;;;8.72;96.38;95741.34;4977005;28;20855;-34
2021/05/13 03:50:01;;;;;;;5.80;2.40;;;;;;;8.75;96.36;95743.75;4982587;28;20503;-41
2021/05/13 03:52:29;;;;;;;3.60;2.13;;;;;;;8.77;96.76;95739.25;4979481;28;20433;-41
2021/05/13 03:54:57;;;;;;;8.30;2.77;;;;;;;8.85;96.92;95736.97;4978756;28;20537;-41
2021/05/13 03:57:25;;;;;;;3.57;2.73;;;;;;;8.87;97.01;95732.50;4976508;28;20429;-34
2021/05/13 04:00:06;;;;;;;8.73;3.60;;;;;;;8.87;97.75;95732.50;4982808;28;20473;-41
2021/05/13 04:02:34;;;;;;;5.00;2.30;;;;;;;8.97;97.79;95737.88;4977562;28;20457;-41
2021/05/13 04:05:02;;;;;;;6.20;2.73;;;;;;;9.00;98.17;95730.72;4979391;28;20499;-41
2021/05/13 04:07:32;;;;;;;5.33;2.60;;;;;;;9.08;98.58;95736.19;4979213;28;20499;-34
2021/05/13 04:10:03;;;;;;;6.90;3.30;;;;;;;9.20;98.38;95732.75;4984406;28;20907;-41
2021/05/13 04:12:33;;;;;;;4.50;2.63;;;;;;;9.08;97.43;95727.59;4974432;28;20752;-40
2021/05/13 04:15:00;;;;;;;4.47;2.23;;;;;;;9.00;97.30;95725.53;4978938;28;20468;-41
2021/05/13 04:17:30;;;;;;;5.57;2.80;;;;;;;9.08;96.86;95738.78;4974243;28;20830;-42
2021/05/13 04:20:02;;;;;;;7.00;3.10;;;;;;;9.18;96.48;95734.63;4976151;28;20460;-33
2021/05/13 04:22:29;;;;;;;15.90;5.23;;;;;;;9.21;95.86;95723.22;4982433;28;20454;-40
2021/05/13 04:24:57;;;;;;;12.07;6.43;;;;;;;9.24;95.49;95728.19;4976773;28;21084;-33
2021/05/13 04:27:25;;;;;;;30.50;15.33;;;;;;;9.19;95.19;95720.72;4976457;28;20941;-40
2021/05/13 04:29:52;;;;;;;22.60;11.30;;;;;;;9.10;94.43;95690.22;4978009;28;20794;-40
2021/05/13 04:32:20;;;;;;;13.27;7.93;;;;;;;9.28;93.91;95722.66;4977521;28;20440;-33
2021/05/13 04:34:48;;;;;;;14.90;7.30;;;;;;;9.36;93.93;95716.94;4978144;28;20955;-40
2021/05/13 04:37:16;;;;;;;11.80;6.70;;;;;;;9.35;94.55;95713.50;4978802;28;20921;-33
2021/05/13 04:39:44;;;;;;;15.47;6.23;;;;;;;9.31;95.21;95701.66;4975107;28;20792;-40
2021/05/13 04:42:11;;;;;;;7.30;4.67;;;;;;;9.49;95.64;95705.53;4977435;28;20437;-33
2021/05/13 04:44:40;;;;;;;10.53;5.33;;;;;;;9.55;95.93;95712.91;4979599;28;21033;-40
2021/05/13 04:49:56;;;;;;;6.83;4.17;;;;;;;9.71;94.95;95713.44;4974642;28;20963;-33
2021/05/13 04:52:25;;;;;;;16.50;4.50;;;;;;;9.50;95.45;95707.19;4977644;28;20901;-34
2021/05/13 04:54:54;;;;;;;7.40;4.13;;;;;;;9.60;94.76;95712.56;4973534;28;20789;-44
2021/05/13 04:57:22;;;;;;;4.97;3.50;;;;;;;9.58;95.14;95707.47;4977351;28;20971;-33
2021/05/13 04:59:51;;;;;;;9.57;3.70;;;;;;;9.60;94.26;95707.38;4978217;28;20965;-40
2021/05/13 05:02:18;;;;;;;5.30;2.97;;;;;;;9.72;93.53;95707.31;4972093;28;20429;-40
2021/05/13 05:04:46;;;;;;;5.93;3.17;;;;;;;9.67;93.43;95706.00;4978624;28;20868;-40
2021/05/13 05:07:13;;;;;;;5.83;3.30;;;;;;;9.81;93.58;95703.22;4975573;28;20443;-40
2021/05/13 05:09:41;;;;;;;8.30;3.50;;;;;;;10.00;93.95;95698.31;4977893;28;20491;-40
2021/05/13 05:12:12;;;;;;;5.40;3.07;;;;;;;9.82;93.56;95705.69;4983697;28;20439;-34
2021/05/13 05:14:40;;;;;;;4.83;3.27;;;;;;;9.83;93.05;95706.53;4981026;28;20498;-40
2021/05/13 05:17:08;;;;;;;7.10;2.80;;;;;;;9.78;93.14;95700.81;4987312;28;20869;-40
2021/05/13 05:19:36;;;;;;;6.30;3.77;;;;;;;9.79;93.64;95705.91;4978683;28;20779;-45
2021/05/13 05:22:05;;;;;;;5.77;2.93;;;;;;;9.86;93.35;95706.28;4984456;28;20905;-35
2021/05/13 05:24:33;;;;;;;6.33;3.27;;;;;;;9.93;92.91;95697.09;4978582;28;20542;-42
2021/05/13 05:27:00;;;;;;;7.87;3.30;;;;;;;10.09;93.00;95695.88;4984186;28;20899;-42
2021/05/13 05:29:28;;;;;;;5.53;3.00;;;;;;;10.25;92.54;95695.59;4984165;28;20474;-42
2021/05/13 05:31:55;;;;;;;8.10;3.30;;;;;;;10.49;92.06;95691.13;4978651;28;20985;-35
2021/05/13 05:34:24;;;;;;;8.40;2.80;;;;;;;10.67;91.04;95667.13;4979522;28;20460;-36
2021/05/13 05:36:51;;;;;;;3.90;2.60;;;;;;;10.83;90.98;95698.81;4987848;28;20442;-35
2021/05/13 05:39:19;;;;;;;10.93;2.40;;;;;;;10.92;90.54;95705.94;4980663;28;21139;-42
2021/05/13 05:41:47;;;;;;;9.33;3.50;;;;;;;10.99;89.44;95694.06;4982595;28;20445;-35
2021/05/13 05:44:15;;;;;;;12.37;2.73;;;;;;;11.13;88.80;95703.44;4980047;28;20523;-35
2021/05/13 05:46:42;;;;;;;4.20;2.77;;;;;;;11.16;88.50;95688.41;4979998;28;20452;-42
2021/05/13 05:49:10;;;;;;;4.40;2.87;;;;;;;11.25;88.06;95699.84;4985219;28;20931;-42
2021/05/13 05:51:38;;;;;;;3.07;2.20;;;;;;;11.32;87.89;95691.44;4980384;28;20926;-33
2021/05/13 05:54:07;;;;;;;5.00;2.87;;;;;;;11.52;87.79;95695.91;4987417;28;20479;-42
2021/05/13 05:56:34;;;;;;;4.10;2.80;;;;;;;11.65;87.06;95695.78;4982841;28;20437;-35
2021/05/13 05:59:02;;;;;;;5.87;2.97;;;;;;;11.70;85.99;95689.22;4980676;28;20482;-42
2021/05/13 06:01:29;;;;;;;5.27;2.27;;;;;;;11.78;85.98;95692.03;4977363;28;20440;-42
2021/05/13 06:03:58;;;;;;;5.07;2.97;;;;;;;12.01;85.02;95690.97;4980581;28;20998;-35
2021/05/13 06:06:26;;;;;;;6.97;2.23;;;;;;;12.21;83.53;95690.19;4981449;28;20872;-33
2021/05/13 06:08:57;;;;;;;8.03;2.33;;;;;;;12.49;82.26;95684.31;4981223;28;20795;-34
2021/05/13 06:11:26;;;;;;;3.83;1.27;;;;;;;12.34;78.04;95633.41;4979909;28;20437;-34
2021/05/13 06:13:54;;;;;;;12.20;1.63;;;;;;;12.72;75.37;95685.81;4945599;28;20485;-35
2021/05/13 06:16:21;;;;;;;5.23;1.30;;;;;;;12.86;75.04;95688.91;4978278;28;20441;-40
2021/05/13 06:18:58;;;;;;;4.10;1.40;;;;;;;13.17;73.55;95687.97;4976916;28;20879;-34
2021/05/13 06:21:38;;;;;;;5.77;1.70;;;;;;;13.23;73.81;95676.16;4982458;28;20749;-40
2021/05/13 06:24:11;;;;;;;5.37;2.40;;;;;;;13.30;74.54;95672.03;4980866;28;20499;-43
2021/05/13 06:26:39;;;;;;;3.47;1.70;;;;;;;13.47;75.16;95674.00;4975971;28;21036;-34
2021/05/13 06:29:08;;;;;;;7.13;2.17;;;;;;;13.71;74.71;95674.47;4981524;28;20490;-35
2021/05/13 06:31:37;;;;;;;10.20;2.27;;;;;;;13.89;75.43;95680.66;4976445;28;20946;-34
2021/05/13 06:34:12;;;;;;;5.50;1.63;;;;;;;14.08;72.92;95685.91;4976161;28;20804;-34
2021/05/13 06:36:40;;;;;;;4.50;1.93;;;;;;;14.39;71.94;95669.09;4982085;28;20999;-34
2021/05/13 06:39:10;;;;;;;4.70;1.60;;;;;;;14.36;70.56;95670.19;4978137;28;20456;-34
2021/05/13 06:41:38;;;;;;;5.40;1.63;;;;;;;14.32;71.38;95673.22;4983632;28;20467;-40
2021/05/13 06:44:06;;;;;;;9.00;1.67;;;;;;;14.41;71.88;95667.13;4979254;28;20816;-40
2021/05/13 06:46:34;;;;;;;3.40;1.30;;;;;;;14.57;71.41;95670.84;4978928;28;20966;-34
2021/05/13 06:49:02;;;;;;;3.43;2.10;;;;;;;14.63;70.48;95672.06;4985468;28;20793;-40
2021/05/13 06:51:30;;;;;;;4.23;1.50;;;;;;;14.68;68.41;95673.28;4980381;28;20627;-40
2021/05/13 06:53:57;;;;;;;6.20;1.20;;;;;;;14.73;69.01;95681.53;4980104;28;20526;-34
2021/05/13 06:56:25;;;;;;;3.87;1.27;;;;;;;14.90;68.38;95685.22;4976192;28;20433;-41
2021/05/13 06:58:53;;;;;;;2.23;1.10;;;;;;;15.26;67.00;95693.06;4980785;28;20948;-34
2021/05/13 07:01:22;;;;;;;19.27;9.07;;;;;;;15.18;65.15;95681.66;4983674;28;21196;-35
2021/05/13 07:03:50;;;;;;;4.10;1.40;;;;;;;15.08;64.28;95680.84;4982793;28;20515;-41
2021/05/13 07:06:43;;;;;;;3.03;0.93;;;;;;;15.22;62.89;95683.00;4980750;28;20712;-41
2021/05/13 07:09:11;;;;;;;8.03;1.23;;;;;;;15.25;63.69;95685.34;4981300;28;20860;-34
2021/05/13 07:11:40;;;;;;;1.83;0.70;;;;;;;15.58;61.91;95685.63;4989578;28;20432;-34
2021/05/13 07:14:09;;;;;;;6.07;2.20;;;;;;;15.87;62.03;95688.88;4987101;28;20467;-38
2021/05/13 07:16:37;;;;;;;3.90;0.97;;;;;;;16.09;61.52;95674.47;4981028;28;20444;-34
2021/05/13 07:22:35;;;;;;;5.00;1.00;;;;;;;15.65;62.37;95670.94;4940461;28;20945;-40
2021/05/13 07:25:03;;;;;;;5.27;1.37;;;;;;;15.85;61.36;95674.25;4939893;28;20478;-40
2021/05/13 07:27:31;;;;;;;2.80;1.20;;;;;;;16.56;62.38;95666.16;4939799;28;20987;-43
2021/05/13 07:29:59;;;;;;;2.50;1.57;;;;;;;16.89;58.20;95661.94;4941219;28;20478;-34
2021/05/13 07:32:26;;;;;;;3.20;1.10;;;;;;;16.52;60.08;95654.34;4938409;28;20434;-33
2021/05/13 07:34:54;;;;;;;5.00;1.60;;;;;;;16.82;61.06;95650.41;4932284;28;21000;-34
2021/05/13 07:37:25;;;;;;;4.10;1.97;;;;;;;16.90;59.65;95663.59;4943104;28;20435;-41
2021/05/13 07:39:52;;;;;;;13.80;4.80;;;;;;;16.88;58.60;95640.09;4935485;28;21084;-34
2021/05/13 07:42:20;;;;;;;4.63;2.10;;;;;;;16.74;60.37;95658.25;4942426;28;20426;-42
2021/05/13 07:44:49;;;;;;;5.93;1.97;;;;;;;16.30;60.40;95654.78;4936663;28;20471;-35
2021/05/13 07:47:40;;;;;;;5.73;1.23;;;;;;;16.20;61.06;95661.09;4936309;28;20466;-41
2021/05/13 07:50:09;;;;;;;4.80;0.93;;;;;;;16.05;60.68;95660.00;4933103;28;20473;-35
2021/05/13 07:52:37;;;;;;;2.60;1.13;;;;;;;16.29;62.09;95658.38;4938868;28;20457;-34
2021/05/13 07:55:06;;;;;;;5.20;1.30;;;;;;;16.76;60.98;95658.91;4942423;28;20555;-34
2021/05/13 07:57:34;;;;;;;6.13;1.10;;;;;;;16.98;58.82;95658.38;4932938;28;20826;-41
2021/05/13 08:00:04;;;;;;;5.40;1.30;;;;;;;17.46;61.04;95650.72;4940676;28;20949;-41
2021/05/13 08:02:31;;;;;;;3.17;1.50;;;;;;;17.95;60.29;95645.41;4937875;28;20545;-34
2021/05/13 08:04:59;;;;;;;8.73;1.37;;;;;;;18.47;59.47;95644.97;4942264;28;20537;-34
2021/05/13 08:07:27;;;;;;;3.50;1.20;;;;;;;18.81;56.69;95645.59;4942083;28;20889;-35
2021/05/13 08:09:58;;;;;;;2.37;1.20;;;;;;;19.16;56.40;95649.59;4936568;28;20466;-34
2021/05/13 08:12:26;;;;;;;5.40;1.20;;;;;;;19.32;55.76;95645.09;4941694;28;20439;-47
2021/05/13 08:14:54;;;;;;;4.23;1.00;;;;;;;19.48;55.84;95646.84;4921744;28;20808;-34
2021/05/13 08:17:22;;;;;;;7.70;1.20;;;;;;;19.52;52.50;95637.59;4944843;28;20441;-35
2021/05/13 08:19:50;;;;;;;5.07;1.20;;;;;;;19.71;53.62;95638.00;4943343;28;20545;-34
2021/05/13 08:22:17;;;;;;;5.37;1.27;;;;;;;19.89;53.96;95635.09;4936950;28;20794;-42
2021/05/13 08:24:45;;;;;;;4.30;1.13;;;;;;;19.99;51.92;95639.13;4939980;28;20484;-34
2021/05/13 08:27:12;;;;;;;6.83;1.30;;;;;;;19.22;53.18;95636.56;4942133;28;20454;-41
2021/05/13 08:29:40;;;;;;;6.87;1.33;;;;;;;19.79;55.06;95630.03;4934828;28;20875;-34
2021/05/13 08:32:07;;;;;;;4.20;1.17;;;;;;;20.36;53.73;95626.00;4943024;28;20989;-34
2021/05/13 08:34:35;;;;;;;3.07;1.17;;;;;;;20.95;53.38;95626.94;4937456;28;20462;-41
2021/05/13 08:37:03;;;;;;;5.07;1.47;;;;;;;21.11;50.92;95646.13;4948253;28;20450;-41
2021/05/13 08:39:34;;;;;;;4.97;1.47;;;;;;;21.05;50.78;95632.81;4938568;28;20847;-35
2021/05/13 08:42:12;;;;;;;2.10;0.90;;;;;;;20.62;50.80;95639.63;4941758;28;20971;-42
2021/05/13 08:44:41;;;;;;;4.60;0.77;;;;;;;;;;4942690;28;21072;-41
2021/05/13 08:47:10;;;;;;;1.87;1.00;;;;;;;;;;4942262;28;20952;-34
2021/05/13 08:49:40;;;;;;;2.57;1.03;;;;;;;;;;4941476;28;20573;-42
2021/05/13 08:52:08;;;;;;;97.73;58.63;;;;;;;19.95;nan;95645.75;4943816;28;20435;-41
2021/05/13 08:54:50;;;;;;;9.60;2.00;;;;;;;19.51;nan;95643.88;4933731;28;20455;-42
2021/05/13 08:57:18;;;;;;;3.33;1.13;;;;;;;19.38;nan;95647.06;4933737;28;20854;-34
2021/05/13 08:59:47;;;;;;;8.60;1.53;;;;;;;19.18;nan;95635.25;4913529;28;20839;-34
2021/05/13 09:02:16;;;;;;;9.83;1.73;;;;;;;18.72;nan;95633.38;4938854;28;20434;-41
2021/05/13 09:04:47;;;;;;;44.70;29.00;;;;;;;18.63;nan;95634.41;4941573;28;20484;-41
2021/05/13 09:07:21;;;;;;;55.77;34.50;;;;;;;18.51;nan;95635.72;4936499;28;20477;-43
2021/05/13 09:10:05;;;;;;;7.07;3.07;;;;;;;18.50;nan;95622.72;4944950;28;20952;-34
2021/05/13 09:12:34;;;;;;;6.23;1.20;;;;;;;18.48;nan;95629.94;4940789;28;20921;-41
2021/05/13 09:15:07;;;;;;;3.50;1.23;;;;;;;18.50;nan;95628.00;4942028;28;20492;-34
2021/05/13 09:17:38;;;;;;;4.23;0.93;;;;;;;18.26;nan;95620.88;4933728;28;20501;-41
2021/05/13 09:20:28;;;;;;;5.33;1.10;;;;;;;18.04;nan;95625.97;4943489;28;20877;-41
2021/05/13 09:23:09;;;;;;;2.20;1.00;;;;;;;;;;4944448;28;20529;-34
2021/05/13 09:25:37;;;;;;;10.20;1.33;;;;;;;17.79;nan;95601.47;4938054;28;20474;-34
2021/05/13 09:28:05;;;;;;;3.63;0.97;;;;;;;;;;4939629;28;20534;-35
2021/05/13 09:30:32;;;;;;;4.57;1.00;;;;;;;17.79;nan;95621.69;4939697;28;20475;-41
2021/05/13 09:33:01;;;;;;;1.67;0.83;;;;;;;17.68;nan;95620.19;4939861;28;20465;-34
2021/05/13 09:35:31;;;;;;;7.77;1.23;;;;;;;;;;4940401;28;20988;-41
2021/05/13 09:38:00;;;;;;;4.50;1.20;;;;;;;17.44;nan;95621.13;4950612;28;20434;-34
2021/05/13 09:40:35;;;;;;;4.10;1.43;;;;;;;17.13;nan;95623.44;4936941;28;20466;-34
2021/05/13 09:43:10;;;;;;;3.53;1.10;;;;;;;17.02;nan;95621.09;4944319;28;20444;-41
2021/05/13 09:45:42;;;;;;;2.20;0.80;;;;;;;16.84;nan;95622.97;4936039;28;20471;-35
2021/05/13 09:48:09;;;;;;;1.57;0.80;;;;;;;16.43;nan;95601.88;4941280;28;20517;-41
2021/05/13 09:50:48;;;;;;;5.30;1.37;;;;;;;16.38;nan;95606.78;4935950;28;20769;-41
2021/05/13 09:53:19;;;;;;;3.37;1.00;;;;;;;16.33;nan;95601.94;4933060;28;20548;-43
2021/05/13 09:55:50;;;;;;;8.50;1.00;;;;;;;16.45;nan;95603.38;4942406;28;20513;-42
2021/05/13 09:58:24;;;;;;;3.13;1.10;;;;;;;16.60;nan;95595.75;4937047;28;20450;-43
2021/05/13 10:00:52;;;;;;;4.53;1.63;;;;;;;16.77;nan;95610.59;4940745;28;20493;-36
2021/05/13 10:03:22;;;;;;;3.77;1.27;;;;;;;16.59;nan;95612.50;4941605;28;20560;-43
2021/05/13 10:05:54;;;;;;;9.30;1.30;;;;;;;15.99;nan;95613.34;4938742;28;20485;-43
2021/05/13 10:08:23;;;;;;;5.73;1.23;;;;;;;15.53;nan;95626.69;4940497;28;20468;-43
2021/05/13 10:10:51;;;;;;;4.70;1.47;;;;;;;15.52;nan;95622.41;4946675;28;20564;-36
2021/05/13 10:13:19;;;;;;;4.47;1.63;;;;;;;15.59;nan;95626.91;4948249;28;20510;-36
2021/05/13 10:15:48;;;;;;;5.63;2.43;;;;;;;15.61;nan;95627.59;4937887;28;20790;-36
2021/05/13 10:18:27;;;;;;;6.90;0.90;;;;;;;15.24;nan;95632.06;4928250;28;20765;-37
2021/05/13 10:20:59;;;;;;;2.17;1.00;;;;;;;14.88;nan;95619.84;4945923;28;20472;-44
2021/05/13 10:23:27;;;;;;;4.73;1.23;;;;;;;14.94;nan;95618.44;4938289;28;20918;-37
2021/05/13 10:25:56;;;;;;;4.50;1.20;;;;;;;15.08;nan;95625.81;4936982;28;21299;-44
2021/05/13 10:28:30;;;;;;;1.97;0.80;;;;;;;15.17;nan;95622.34;4932837;28;20863;-37
2021/05/13 10:31:07;;;;;;;5.90;1.10;;;;;;;15.48;nan;95628.94;4938639;28;21187;-37
2021/05/13 10:33:45;;;;;;;1.83;0.93;;;;;;;15.54;nan;95625.72;4934142;28;20433;-44
2021/05/13 10:36:16;;;;;;;15.20;1.77;;;;;;;15.65;nan;95620.25;4941212;28;20925;-42
2021/05/13 10:38:48;;;;;;;2.70;0.90;;;;;;;15.53;nan;95622.25;4938683;28;20987;-42
2021/05/13 10:41:38;;;;;;;3.13;0.90;;;;;;;15.53;nan;95624.88;4936629;28;21093;-35
2021/05/13 10:44:39;;;;;;;3.20;1.10;;;;;;;15.53;nan;95631.94;4939810;28;20841;-35
2021/05/13 10:47:07;;;;;;;3.87;1.07;;;;;;;15.04;nan;95635.75;4937036;28;20454;-42
2021/05/13 10:49:50;;;;;;;2.50;1.00;;;;;;;14.27;nan;95623.06;4938675;28;20835;-35
2021/05/13 10:52:32;;;;;;;3.00;0.90;;;;;;;13.46;nan;95646.19;4940226;28;20521;-41
2021/05/13 10:55:01;;;;;;;5.13;1.20;;;;;;;12.97;nan;95646.25;4939770;28;20549;-42
2021/05/13 10:57:47;;;;;;;6.93;2.80;;;;;;;12.43;nan;95640.47;4935406;28;20469;-41
2021/05/13 11:00:23;;;;;;;4.53;0.90;;;;;;;12.09;nan;95622.56;4932111;28;21025;-34
2021/05/13 11:02:51;;;;;;;7.73;1.50;;;;;;;12.13;nan;95635.22;4937973;28;20891;-41
2021/05/13 11:05:41;;;;;;;2.60;1.47;;;;;;;11.99;nan;95643.34;4930058;28;20588;-41
2021/05/13 11:08:28;;;;;;;5.20;1.03;;;;;;;11.99;nan;95638.13;4944289;28;20425;-41
2021/05/13 11:10:59;;;;;;;9.83;1.43;;;;;;;12.16;nan;95634.13;4925406;28;20493;-34
2021/05/13 11:13:50;;;;;;;1.83;1.03;;;;;;;12.34;nan;95636.03;4938594;28;20829;-34
2021/05/13 11:16:43;;;;;;;2.23;1.43;;;;;;;12.52;nan;95631.84;4939672;28;20455;-34
2021/05/13 11:19:29;;;;;;;8.87;1.10;;;;;;;12.85;nan;95636.81;4942122;28;20854;-34
2021/05/13 11:22:00;;;;;;;4.10;0.90;;;;;;;12.90;nan;95632.03;4939544;28;20507;-34
2021/05/13 11:24:36;;;;;;;3.80;1.50;;;;;;;13.02;nan;95630.97;4936584;28;20862;-41
2021/05/13 11:27:05;;;;;;;3.20;0.73;;;;;;;13.27;nan;95615.63;4941519;28;20517;-41
2021/05/13 11:29:51;;;;;;;4.37;1.30;;;;;;;13.75;nan;95610.44;4933444;28;20562;-41
2021/05/13 11:32:23;;;;;;;2.50;0.90;;;;;;;14.64;nan;95609.06;4936445;28;20532;-43
2021/05/13 11:34:55;;;;;;;2.53;1.53;;;;;;;15.15;nan;95606.75;4934367;28;21119;-37
2021/05/13 11:37:35;;;;;;;3.90;1.23;;;;;;;15.45;nan;95613.47;4925093;28;20509;-44
2021/05/13 11:40:18;;;;;;;1.40;0.97;;;;;;;15.66;nan;95600.91;4939367;28;20781;-37
2021/05/13 11:42:46;;;;;;;1.27;0.80;;;;;;;15.41;nan;95601.66;4938981;28;20452;-37
2021/05/13 11:45:18;;;;;;;4.87;0.83;;;;;;;15.12;nan;95590.47;4933062;28;20487;-41
2021/05/13 11:47:46;;;;;;;4.70;1.20;;;;;;;15.20;nan;95603.69;4933835;28;20461;-41
2021/05/13 11:50:30;;;;;;;6.47;0.93;;;;;;;15.06;nan;95596.31;4938443;28;20886;-42
2021/05/13 11:53:08;;;;;;;4.00;0.83;;;;;;;15.01;nan;95601.16;4936917;28;21077;-41
2021/05/13 11:55:40;;;;;;;4.27;1.17;;;;;;;15.20;nan;95608.91;4933920;28;20459;-34
2021/05/13 11:58:10;;;;;;;3.03;0.90;;;;;;;15.07;nan;95616.31;4940763;28;20900;-34
2021/05/13 12:00:39;;;;;;;1.20;0.87;;;;;;;14.78;nan;95618.22;4947347;23;20569;-40
2021/05/13 12:03:12;;;;;;;3.33;1.43;;;;;;;14.74;nan;95614.25;4937544;28;20511;-41